Time;durP1;ratioP1;P1;durP2;ratioP2;P2;SDS_P1;SDS_P2;PMS_P1;PMS_P2;Temp;Humidity;BMP_temperature;BMP_pressure;BME280_temperature;BME280_humidity;BME280_pressure;Samples;Min_cycle;Max_cycle;Signal;HPM_P1;HPM_P2
2021/12/16 00:02:57;;;;;;;26.85;14.13;;;;;;;14.25;56.35;103010.84;5035552;28;20132;-85
2021/12/16 00:08:31;;;;;;;21.90;12.75;;;;;;;14.26;56.31;103008.03;5022518;28;20042;-85
2021/12/16 00:11:22;;;;;;;23.52;14.02;;;;;;;14.25;56.40;103008.09;5015565;28;20053;-85
2021/12/16 00:19:40;;;;;;;24.45;12.98;;;;;;;14.25;56.51;103010.84;5025735;28;20099;-86
2021/12/16 00:35:39;;;;;;;26.27;14.65;;;;;;;14.26;56.07;103021.72;5031437;28;20076;-84
2021/12/16 00:38:06;;;;;;;25.00;14.40;;;;;;;14.28;56.30;103022.53;5026170;28;20041;-85
2021/12/16 00:40:33;;;;;;;26.35;14.65;;;;;;;14.29;56.04;103021.56;5017761;28;20130;-85
2021/12/16 00:43:13;;;;;;;22.45;12.75;;;;;;;14.28;56.48;103017.06;5016091;28;20103;-85
2021/12/16 00:45:57;;;;;;;25.92;14.10;;;;;;;14.30;56.34;103014.25;5032957;28;20057;-84
2021/12/16 00:48:58;;;;;;;24.48;14.50;;;;;;;14.31;56.37;103010.56;5031405;28;20464;-85
2021/12/16 00:54:10;;;;;;;21.75;13.15;;;;;;;14.32;56.43;103020.53;5034270;28;20045;-85
2021/12/16 00:56:52;;;;;;;24.70;13.45;;;;;;;14.34;55.88;103018.59;5032889;28;20052;-85
2021/12/16 00:59:22;;;;;;;23.80;14.43;;;;;;;14.32;56.43;103017.81;5032972;28;20049;-85
2021/12/16 01:02:09;;;;;;;24.90;14.30;;;;;;;14.32;56.29;103010.50;5016576;28;20099;-84
2021/12/16 01:50:36;;;;;;;26.95;14.88;;;;;;;14.24;55.94;103037.31;5034025;28;20378;-84
2021/12/16 01:56:37;;;;;;;23.45;14.05;;;;;;;14.21;56.22;103039.28;5035525;28;20068;-85
2021/12/16 01:59:06;;;;;;;28.42;15.13;;;;;;;14.19;56.38;103049.41;5032473;28;20512;-84
2021/12/16 02:01:38;;;;;;;27.02;14.95;;;;;;;14.19;56.05;103046.66;5015133;28;20045;-85
2021/12/16 02:04:18;;;;;;;26.33;14.80;;;;;;;14.21;56.14;103048.38;5032631;28;20095;-84
2021/12/16 02:09:38;;;;;;;25.10;14.32;;;;;;;14.22;55.97;103044.69;5027431;28;20045;-84
2021/12/16 02:12:42;;;;;;;23.90;13.68;;;;;;;14.22;56.27;103047.41;5032218;28;20053;-84
2021/12/16 02:32:00;;;;;;;26.80;15.13;;;;;;;14.19;56.60;103046.66;5031983;28;20099;-84
2021/12/16 02:34:31;;;;;;;28.50;15.63;;;;;;;14.20;56.51;103059.38;5031663;28;20049;-85
2021/12/16 02:36:58;;;;;;;28.13;16.02;;;;;;;14.20;56.33;103057.53;5027283;28;20049;-85
2021/12/16 02:39:30;;;;;;;27.00;14.40;;;;;;;14.21;56.26;103042.03;5014158;28;20074;-85
2021/12/16 02:42:06;;;;;;;28.92;15.27;;;;;;;14.21;56.28;103045.63;5032136;28;20064;-85
2021/12/16 02:49:55;;;;;;;26.33;14.48;;;;;;;14.17;56.27;103063.13;5032417;28;20471;-84
2021/12/16 02:52:25;;;;;;;23.77;14.05;;;;;;;14.20;56.37;103070.28;5024950;28;20049;-84
2021/12/16 02:54:52;;;;;;;26.92;14.30;;;;;;;14.19;56.09;103068.53;5001911;28;20149;-84
2021/12/16 02:57:20;;;;;;;26.02;14.20;;;;;;;14.19;56.39;103063.06;5022348;28;20050;-85
2021/12/16 02:59:51;;;;;;;27.80;15.15;;;;;;;14.20;56.39;103053.91;5020150;28;20053;-85
2021/12/16 03:02:23;;;;;;;26.73;14.50;;;;;;;14.22;56.37;103057.47;5030235;28;20072;-85
2021/12/16 03:04:52;;;;;;;27.25;15.40;;;;;;;14.19;56.23;103061.22;5009588;28;20058;-85
2021/12/16 03:07:20;;;;;;;30.27;15.93;;;;;;;14.23;55.92;103059.25;5016471;28;20054;-85
2021/12/16 03:15:39;;;;;;;28.25;14.43;;;;;;;14.22;55.86;103052.88;5011636;28;20119;-85
2021/12/16 03:18:23;;;;;;;28.35;16.05;;;;;;;14.20;56.29;103054.78;5044067;28;20083;-85
2021/12/16 03:20:56;;;;;;;24.50;14.50;;;;;;;14.19;56.09;103049.41;5032012;28;20140;-85
2021/12/16 03:34:38;;;;;;;26.38;14.52;;;;;;;14.19;55.93;103065.78;5031590;28;20128;-84
2021/12/16 03:37:15;;;;;;;24.90;13.52;;;;;;;14.20;56.29;103063.00;5026634;28;20096;-84
2021/12/16 03:39:53;;;;;;;27.40;14.40;;;;;;;14.21;56.01;103070.22;5020480;28;20060;-84
2021/12/16 03:42:26;;;;;;;24.73;14.25;;;;;;;14.21;55.95;103058.41;5026410;28;20100;-84
2021/12/16 03:45:00;;;;;;;25.70;14.70;;;;;;;14.20;56.07;103063.00;5030571;28;20559;-84
2021/12/16 03:47:38;;;;;;;29.08;15.02;;;;;;;14.20;56.04;103063.00;5030719;28;20559;-85
2021/12/16 03:50:14;;;;;;;23.67;13.75;;;;;;;14.21;56.23;103066.63;5030287;28;20049;-85
2021/12/16 03:52:44;;;;;;;25.95;14.50;;;;;;;14.18;56.45;103066.75;5031004;28;20053;-84
2021/12/16 03:55:12;;;;;;;22.45;13.85;;;;;;;14.20;56.11;103067.56;5011817;28;20100;-84
2021/12/16 03:57:42;;;;;;;25.20;14.80;;;;;;;14.21;56.30;103069.34;5022619;28;20463;-85
2021/12/16 04:00:25;;;;;;;25.55;14.18;;;;;;;14.21;56.43;103063.88;5014726;28;20104;-84
2021/12/16 04:02:52;;;;;;;27.42;14.27;;;;;;;14.18;56.03;103074.94;5031053;28;20056;-84
2021/12/16 04:05:20;;;;;;;28.10;15.25;;;;;;;14.20;55.87;103082.13;5009099;28;20057;-85
2021/12/16 04:07:48;;;;;;;27.20;15.93;;;;;;;14.20;56.18;103078.50;5004766;28;20529;-85
2021/12/16 04:10:32;;;;;;;28.60;16.05;;;;;;;14.23;56.35;103079.25;5022170;28;20045;-84
2021/12/16 04:13:01;;;;;;;27.90;15.05;;;;;;;14.19;56.10;103082.19;5031534;28;20104;-85
2021/12/16 04:15:31;;;;;;;23.92;14.13;;;;;;;14.22;56.02;103085.66;5017727;28;20099;-85
2021/12/16 04:18:01;;;;;;;27.05;14.63;;;;;;;14.22;56.17;103084.78;5032975;28;20049;-84
2021/12/16 04:20:28;;;;;;;24.50;14.52;;;;;;;14.20;56.50;103075.75;5034645;28;20408;-85
2021/12/16 04:22:56;;;;;;;27.05;15.20;;;;;;;14.22;56.29;103090.25;5033453;28;20500;-84
2021/12/16 04:25:33;;;;;;;25.70;15.00;;;;;;;14.24;56.16;103091.06;5032570;28;20463;-84
2021/12/16 04:28:05;;;;;;;28.23;16.15;;;;;;;14.22;56.09;103082.03;5027896;28;20124;-84
2021/12/16 04:30:32;;;;;;;27.52;15.45;;;;;;;14.20;56.40;103084.84;5037845;28;20056;-84
2021/12/16 04:32:59;;;;;;;27.30;15.77;;;;;;;14.21;56.32;103088.47;5036396;28;20075;-84
2021/12/16 04:35:26;;;;;;;26.85;15.20;;;;;;;14.21;56.04;103088.47;5046368;28;20061;-84
2021/12/16 04:37:53;;;;;;;25.20;14.90;;;;;;;14.21;56.25;103086.63;5018047;28;20452;-84
2021/12/16 04:40:21;;;;;;;27.58;15.10;;;;;;;14.22;56.39;103088.41;5028479;28;20049;-83
2021/12/16 04:42:49;;;;;;;24.92;15.23;;;;;;;14.22;56.21;103087.50;5033296;28;20096;-84
2021/12/16 04:45:19;;;;;;;29.67;16.17;;;;;;;14.22;56.51;103091.13;5034537;28;20049;-84
2021/12/16 04:47:47;;;;;;;28.92;16.23;;;;;;;14.21;56.49;103097.56;5016488;28;20120;-84
2021/12/16 04:50:16;;;;;;;25.40;14.10;;;;;;;14.22;55.93;103092.97;5033583;28;20072;-84
2021/12/16 04:52:44;;;;;;;25.92;14.85;;;;;;;14.21;56.36;103099.41;5016595;28;20559;-84
2021/12/16 04:55:13;;;;;;;27.42;16.08;;;;;;;14.21;56.30;103103.00;5033267;28;20053;-84
2021/12/16 04:57:41;;;;;;;23.55;13.75;;;;;;;14.21;56.47;103104.88;5033717;28;20099;-83
2021/12/16 05:00:12;;;;;;;23.63;13.98;;;;;;;14.21;56.31;103096.66;5041889;28;20060;-84
2021/12/16 05:02:42;;;;;;;28.02;15.75;;;;;;;14.20;56.11;103101.25;5024864;28;20115;-83
2021/12/16 05:05:13;;;;;;;25.13;15.02;;;;;;;14.18;56.34;103100.41;5034112;28;20041;-84
2021/12/16 05:07:42;;;;;;;26.63;15.52;;;;;;;14.17;56.10;103095.91;5033311;28;20115;-84
2021/12/16 05:10:12;;;;;;;27.75;15.70;;;;;;;14.20;56.41;103094.88;5027346;28;20076;-84
2021/12/16 05:12:43;;;;;;;27.38;15.75;;;;;;;14.20;56.53;103092.16;5031284;28;20049;-84
2021/12/16 05:15:17;;;;;;;27.83;16.02;;;;;;;14.19;56.58;103088.53;5033872;28;20049;-84
2021/12/16 05:17:48;;;;;;;24.38;13.93;;;;;;;14.17;56.27;103090.44;5024199;28;20046;-84
2021/12/16 05:20:20;;;;;;;26.27;14.52;;;;;;;14.19;56.18;103080.34;5033896;28;20103;-84
2021/12/16 05:28:06;;;;;;;;;;;;;;;13.93;57.17;103086.09;5021280;28;20099;-84
2021/12/16 05:30:34;;;;;;;20.50;11.50;;;;;;;14.15;56.64;103096.97;5014302;28;20229;-84
2021/12/16 05:33:00;;;;;;;21.33;11.43;;;;;;;14.16;56.22;103099.63;5032501;28;20056;-84
2021/12/16 05:35:31;;;;;;;23.95;13.77;;;;;;;14.18;56.03;103102.25;5032559;28;20045;-84
2021/12/16 05:37:58;;;;;;;27.77;14.77;;;;;;;14.18;56.59;103107.72;5031048;28;20057;-84
2021/12/16 05:40:27;;;;;;;25.90;14.73;;;;;;;14.20;56.32;103100.34;5019005;28;20413;-84
2021/12/16 05:42:57;;;;;;;23.40;13.48;;;;;;;14.20;56.51;103111.28;5012476;28;20108;-83
2021/12/16 05:45:25;;;;;;;26.40;14.77;;;;;;;14.19;56.62;103106.78;5029899;28;20148;-84
2021/12/16 05:47:55;;;;;;;26.73;14.68;;;;;;;14.20;56.05;103108.53;5021873;28;20053;-84
2021/12/16 05:50:25;;;;;;;25.55;14.90;;;;;;;14.20;56.25;103108.53;5014729;28;20057;-84
2021/12/16 05:52:52;;;;;;;25.80;15.48;;;;;;;14.18;56.41;103114.06;5005997;28;20056;-84
2021/12/16 05:55:23;;;;;;;26.17;14.73;;;;;;;14.22;56.10;103128.50;5030725;28;20071;-84
2021/12/16 05:57:52;;;;;;;28.73;16.40;;;;;;;14.18;56.69;103129.56;5030170;28;20573;-84
2021/12/16 06:00:31;;;;;;;26.23;15.68;;;;;;;14.20;56.16;103125.81;5027546;28;20508;-84
2021/12/16 06:03:24;;;;;;;;;;;;;;;;;;;;;
2021/12/16 06:05:53;;;;;;;26.90;15.60;;;;;;;14.17;56.29;103133.25;5017401;28;20050;-83
2021/12/16 06:08:28;;;;;;;30.88;15.77;;;;;;;14.20;56.13;103141.34;5006941;28;20165;-83
2021/12/16 06:11:32;;;;;;;25.75;14.38;;;;;;;14.16;56.27;103140.59;4993049;28;20056;-84
2021/12/16 06:14:13;;;;;;;23.83;12.77;;;;;;;14.16;56.26;103147.91;5023065;28;20123;-83
2021/12/16 06:22:48;;;;;;;24.17;14.55;;;;;;;14.14;56.53;103152.56;5029628;28;20041;-83
2021/12/16 06:28:06;;;;;;;28.98;16.08;;;;;;;14.13;56.58;103161.69;5028441;28;20052;-84
2021/12/16 06:30:39;;;;;;;28.85;16.80;;;;;;;14.16;56.54;103169.78;5028168;28;20108;-83
2021/12/16 06:33:09;;;;;;;24.33;14.32;;;;;;;14.13;56.49;103165.31;5002055;28;20059;-84
2021/12/16 06:35:39;;;;;;;23.65;13.70;;;;;;;14.12;56.35;103166.28;5028174;28;20049;-83
2021/12/16 06:38:06;;;;;;;29.35;16.20;;;;;;;14.12;56.21;103165.38;5025868;28;20450;-83
2021/12/16 06:40:38;;;;;;;26.10;14.52;;;;;;;14.10;56.48;103166.34;5034936;28;20132;-83
2021/12/16 06:43:31;;;;;;;27.88;15.60;;;;;;;14.11;56.41;103167.22;5030489;28;20045;-83
2021/12/16 06:46:00;;;;;;;25.58;14.73;;;;;;;14.12;56.36;103165.38;5025994;28;20512;-85
2021/12/16 06:48:31;;;;;;;32.20;17.58;;;;;;;14.13;56.43;103173.50;5011853;28;20354;-85
2021/12/16 06:51:08;;;;;;;32.50;17.77;;;;;;;14.13;56.16;103170.78;5012827;28;20049;-84
2021/12/16 06:53:52;;;;;;;34.00;17.17;;;;;;;14.13;56.64;103168.06;5018693;28;20124;-83
2021/12/16 06:56:29;;;;;;;26.30;15.30;;;;;;;14.13;56.53;103181.72;5025339;28;20038;-83
2021/12/16 07:02:11;;;;;;;28.20;15.77;;;;;;;14.10;56.41;103177.25;5019506;28;20056;-85
2021/12/16 07:04:43;;;;;;;29.15;16.23;;;;;;;14.14;56.28;103185.31;5008232;28;20085;-85
2021/12/16 07:07:11;;;;;;;27.60;16.20;;;;;;;14.14;56.59;103183.50;5036139;28;20064;-85
2021/12/16 07:09:39;;;;;;;32.00;16.70;;;;;;;14.15;56.40;103188.00;5011490;28;20073;-73
2021/12/16 07:12:08;;;;;;;30.92;17.42;;;;;;;14.17;56.75;103185.16;5038830;28;20780;-88
2021/12/16 07:14:39;;;;;;;28.95;16.73;;;;;;;14.17;56.57;103188.78;5031107;28;20041;-87
2021/12/16 07:17:17;;;;;;;30.88;17.13;;;;;;;14.19;56.53;103197.81;5030424;28;20045;-89
2021/12/16 07:19:46;;;;;;;28.25;16.67;;;;;;;14.17;56.53;103216.13;5031197;28;20053;-88
2021/12/16 07:22:14;;;;;;;30.40;17.50;;;;;;;14.17;56.84;103209.75;5044430;28;20091;-88
2021/12/16 07:24:41;;;;;;;25.48;14.85;;;;;;;14.18;56.59;103217.00;5026463;28;20064;-89
2021/12/16 07:27:11;;;;;;;27.20;15.63;;;;;;;14.18;56.61;103217.00;5019369;28;20041;-89
2021/12/16 07:29:40;;;;;;;28.73;16.60;;;;;;;14.18;56.20;103223.34;5028425;28;20042;-88
2021/12/16 07:32:07;;;;;;;29.10;16.63;;;;;;;14.20;56.09;103228.75;5033366;28;20049;-88
2021/12/16 07:34:35;;;;;;;27.48;14.57;;;;;;;14.20;56.21;103232.38;5034267;28;20068;-88
2021/12/16 07:37:04;;;;;;;27.95;15.07;;;;;;;14.20;56.61;103237.84;5024451;28;20061;-89
2021/12/16 07:39:38;;;;;;;26.45;15.05;;;;;;;14.20;56.44;103236.97;5015429;28;20049;-88
2021/12/16 07:42:15;;;;;;;27.27;15.57;;;;;;;14.22;56.49;103240.53;5011671;28;20396;-89
2021/12/16 07:44:48;;;;;;;33.88;18.13;;;;;;;14.20;56.33;103250.63;5048915;28;20377;-89
2021/12/16 07:47:25;;;;;;;26.10;14.57;;;;;;;14.20;56.48;103247.88;5047510;28;20045;-89
2021/12/16 07:50:01;;;;;;;30.40;16.90;;;;;;;14.20;56.48;103239.69;5043461;28;20227;-86
2021/12/16 07:52:33;;;;;;;32.33;16.95;;;;;;;14.21;56.45;103253.28;5014614;28;20124;-85
2021/12/16 07:55:02;;;;;;;27.65;14.90;;;;;;;14.20;56.49;103256.97;5027431;28;20045;-85
2021/12/16 07:57:29;;;;;;;27.13;14.75;;;;;;;14.20;56.38;103248.78;5029758;28;20049;-86
2021/12/16 07:59:58;;;;;;;24.20;14.65;;;;;;;14.20;56.19;103251.50;5041885;28;20042;-90
2021/12/16 08:02:42;;;;;;;28.83;16.02;;;;;;;14.23;56.43;103261.44;5019531;28;20156;-86
2021/12/16 08:05:24;;;;;;;25.17;14.00;;;;;;;14.23;56.49;103259.59;5017994;28;20066;-86
2021/12/16 08:07:54;;;;;;;26.48;14.40;;;;;;;14.21;56.43;103250.56;5013568;28;20064;-86
2021/12/16 08:10:36;;;;;;;29.98;16.67;;;;;;;14.23;56.35;103264.16;5031245;28;20045;-86
2021/12/16 08:13:07;;;;;;;25.10;14.48;;;;;;;14.22;56.49;103265.13;5014380;28;20075;-86
2021/12/16 08:15:47;;;;;;;24.98;15.15;;;;;;;14.23;56.62;103264.16;5034076;28;20049;-86
2021/12/16 08:18:16;;;;;;;25.85;14.40;;;;;;;14.23;56.03;103258.69;5024340;28;20053;-87
2021/12/16 08:20:43;;;;;;;26.90;14.80;;;;;;;14.23;56.56;103273.25;5028618;28;20046;-88
2021/12/16 08:23:45;;;;;;;32.90;16.88;;;;;;;14.28;55.90;103267.56;5044095;28;20076;-87
2021/12/16 08:26:15;;;;;;;26.90;15.80;;;;;;;14.22;56.22;103270.56;5030981;28;20060;-85
2021/12/16 08:28:52;;;;;;;26.75;14.82;;;;;;;14.24;56.07;103275.03;5033310;28;20045;-87
2021/12/16 08:31:38;;;;;;;31.92;16.80;;;;;;;14.22;56.01;103285.13;5028764;28;20045;-85
2021/12/16 08:34:08;;;;;;;28.85;15.73;;;;;;;14.25;56.49;103278.63;5024758;28;20041;-86
2021/12/16 08:36:35;;;;;;;27.90;15.40;;;;;;;14.24;56.27;103276.88;5024789;28;20037;-85
2021/12/16 08:39:07;;;;;;;27.42;15.35;;;;;;;14.27;55.83;103283.06;5028857;28;20044;-85
2021/12/16 08:41:38;;;;;;;29.98;17.75;;;;;;;14.26;55.92;103274.94;5018222;28;20099;-86
2021/12/16 08:44:12;;;;;;;27.52;15.20;;;;;;;14.26;55.97;103285.88;5027943;28;20053;-86
2021/12/16 08:46:43;;;;;;;25.92;14.35;;;;;;;14.24;55.77;103296.88;5031313;28;20095;-85
2021/12/16 08:49:10;;;;;;;28.23;15.98;;;;;;;14.22;56.07;103296.06;5031510;28;20041;-85
2021/12/16 08:51:45;;;;;;;30.88;16.65;;;;;;;14.23;56.22;103288.75;5019236;28;20041;-86
2021/12/16 08:54:12;;;;;;;28.98;16.77;;;;;;;14.19;55.97;103293.44;5014944;28;20041;-84
2021/12/16 08:56:39;;;;;;;30.40;17.83;;;;;;;14.19;56.09;103308.94;5032071;28;20042;-83
2021/12/16 08:59:07;;;;;;;29.15;17.30;;;;;;;14.19;55.92;103312.56;5040383;28;20041;-83
2021/12/16 09:01:42;;;;;;;36.10;19.35;;;;;;;14.21;56.31;103320.72;5030217;28;20053;-84
2021/12/16 09:04:11;;;;;;;34.90;18.92;;;;;;;14.18;56.06;103315.38;5028435;28;20046;-86
2021/12/16 09:06:38;;;;;;;30.48;17.38;;;;;;;14.15;56.51;103327.34;5013082;28;20440;-83
2021/12/16 09:09:07;;;;;;;29.73;16.27;;;;;;;14.17;56.39;103330.88;5027502;28;20704;-84
2021/12/16 09:11:42;;;;;;;32.58;18.15;;;;;;;14.17;55.99;103330.88;5018642;28;20049;-84
2021/12/16 09:14:08;;;;;;;31.38;17.02;;;;;;;14.16;56.26;103342.78;5026541;28;20099;-83
2021/12/16 09:16:36;;;;;;;25.98;14.10;;;;;;;14.17;55.97;103340.91;5030848;28;20042;-83
2021/12/16 09:19:05;;;;;;;32.00;17.42;;;;;;;14.17;56.02;103340.91;5032311;28;20715;-84
2021/12/16 09:21:35;;;;;;;31.02;16.80;;;;;;;14.18;56.39;103338.13;5032568;28;20077;-84
2021/12/16 09:24:07;;;;;;;32.20;16.83;;;;;;;14.16;56.15;103348.25;5013783;28;20139;-86
2021/12/16 09:26:35;;;;;;;27.58;15.18;;;;;;;14.15;56.47;103356.50;5030771;28;20044;-85
2021/12/16 09:29:03;;;;;;;30.88;16.35;;;;;;;14.18;56.07;103350.88;4991323;28;20629;-87
2021/12/16 09:31:30;;;;;;;28.98;16.10;;;;;;;14.17;56.21;103352.72;5022394;28;20488;-85
2021/12/16 09:34:04;;;;;;;32.80;17.05;;;;;;;14.18;56.25;103361.81;5017093;28;20048;-83
2021/12/16 09:36:34;;;;;;;31.58;17.02;;;;;;;14.17;56.20;103358.19;5030896;28;20071;-83
2021/12/16 09:39:07;;;;;;;31.13;17.40;;;;;;;14.20;56.37;103362.66;5026244;28;20056;-83
2021/12/16 09:41:34;;;;;;;;;;;;;;;13.94;56.84;103364.63;5024588;28;20046;-83
2021/12/16 09:44:05;;;;;;;30.35;15.48;;;;;;;14.16;56.17;103358.28;5028475;28;20596;-83
2021/12/16 09:46:35;;;;;;;27.33;14.65;;;;;;;14.15;56.57;103349.19;5033800;28;20412;-83
2021/12/16 09:49:03;;;;;;;28.27;15.73;;;;;;;14.19;56.17;103360.84;5030505;28;20049;-83
2021/12/16 09:51:41;;;;;;;32.00;17.55;;;;;;;14.19;56.68;103356.28;5013927;28;20046;-83
2021/12/16 09:54:12;;;;;;;35.58;17.67;;;;;;;14.18;56.17;103367.28;5030706;28;20520;-82
2021/12/16 09:56:44;;;;;;;29.38;15.23;;;;;;;14.18;56.58;103368.16;5042490;28;20405;-86
2021/12/16 09:59:16;;;;;;;33.13;15.95;;;;;;;14.17;56.51;103357.28;5029051;28;20128;-85
2021/12/16 10:02:09;;;;;;;28.80;15.40;;;;;;;14.15;56.33;103362.84;5029129;28;20534;-81
2021/12/16 10:04:39;;;;;;;32.38;15.98;;;;;;;14.16;56.50;103371.94;5022568;28;20484;-84
2021/12/16 10:07:16;;;;;;;32.15;16.92;;;;;;;14.20;56.40;103368.09;5028409;28;20069;-86
2021/12/16 10:09:47;;;;;;;30.25;16.30;;;;;;;14.19;56.27;103367.22;5026763;28;20052;-88
2021/12/16 10:12:18;;;;;;;34.42;17.83;;;;;;;14.19;56.14;103361.75;5030824;28;20099;-88
2021/12/16 10:17:25;;;;;;;37.55;18.05;;;;;;;14.20;56.61;103352.59;5031663;28;20132;-84
2021/12/16 10:19:56;;;;;;;29.48;16.00;;;;;;;14.23;56.36;103352.50;5027361;28;20057;-86
2021/12/16 10:22:37;;;;;;;32.05;16.90;;;;;;;14.24;56.43;103351.53;5008988;28;20054;-83
2021/12/16 10:25:25;;;;;;;34.58;17.65;;;;;;;14.22;56.51;103350.72;4999685;28;20166;-86
2021/12/16 10:27:58;;;;;;;27.30;13.30;;;;;;;14.23;56.23;103343.41;5026878;28;20053;-89
2021/12/16 10:31:02;;;;;;;35.17;18.02;;;;;;;14.22;56.25;103347.09;5046085;28;20061;-88
2021/12/16 10:33:36;;;;;;;33.53;17.88;;;;;;;14.24;56.43;103351.53;5034654;28;20065;-88
2021/12/16 10:36:24;;;;;;;33.58;16.88;;;;;;;14.26;56.42;103348.72;5036229;28;20136;-89
2021/12/16 10:39:17;;;;;;;39.83;18.58;;;;;;;14.27;56.60;103347.75;5016692;28;20045;-88
2021/12/16 10:41:52;;;;;;;30.02;16.15;;;;;;;14.25;56.62;103357.84;5018269;28;20505;-88
2021/12/16 10:44:36;;;;;;;33.05;16.98;;;;;;;14.26;56.47;103351.44;5036773;28;20684;-88
2021/12/16 10:47:13;;;;;;;29.45;16.13;;;;;;;14.27;56.68;103348.66;5030023;28;20053;-86
2021/12/16 10:49:49;;;;;;;36.33;18.60;;;;;;;14.27;56.48;103359.59;5030560;28;20089;-84
2021/12/16 10:52:27;;;;;;;28.45;15.25;;;;;;;14.24;56.26;103356.09;5029630;28;20523;-86
2021/12/16 10:54:56;;;;;;;30.60;15.80;;;;;;;14.24;56.28;103359.72;5018158;28;20115;-87
2021/12/16 10:57:26;;;;;;;32.05;16.13;;;;;;;14.25;56.53;103355.13;5045054;28;20061;-86
2021/12/16 10:59:57;;;;;;;31.38;17.15;;;;;;;14.24;56.25;103370.66;5035146;28;20042;-85
2021/12/16 11:02:50;;;;;;;33.45;16.52;;;;;;;14.25;56.49;103369.69;4999213;28;20098;-87
2021/12/16 11:05:27;;;;;;;35.78;16.42;;;;;;;14.20;56.65;103369.00;5020604;28;20053;-88
2021/12/16 11:08:08;;;;;;;33.88;17.08;;;;;;;14.21;56.70;103356.22;5009651;28;20076;-85
2021/12/16 11:10:37;;;;;;;37.60;18.83;;;;;;;14.21;56.78;103370.78;5025436;28;20045;-86
2021/12/16 11:13:11;;;;;;;32.88;16.20;;;;;;;14.25;56.51;103374.25;5011651;28;20038;-85
2021/12/16 11:15:46;;;;;;;33.58;16.80;;;;;;;14.25;56.39;103371.53;5005273;28;20046;-88
2021/12/16 11:18:22;;;;;;;30.08;14.88;;;;;;;14.24;56.58;103376.13;5015696;28;20091;-85
2021/12/16 11:21:12;;;;;;;35.13;15.60;;;;;;;14.23;56.27;103371.63;5024129;28;20061;-87
2021/12/16 11:23:43;;;;;;;36.28;17.20;;;;;;;14.22;56.51;103372.56;5018899;28;20041;-86
2021/12/16 11:26:17;;;;;;;34.20;16.33;;;;;;;14.25;56.53;103379.72;5028284;28;20049;-88
2021/12/16 11:28:46;;;;;;;38.00;17.73;;;;;;;14.22;56.37;103382.59;5029145;28;20053;-89
2021/12/16 11:31:16;;;;;;;31.38;17.67;;;;;;;14.25;56.37;103379.72;5028535;28;20045;-87
2021/12/16 11:33:54;;;;;;;34.03;17.02;;;;;;;14.24;56.36;103373.41;5024632;28;20456;-87
2021/12/16 11:36:37;;;;;;;33.63;17.23;;;;;;;14.24;56.43;103373.41;5044871;28;20396;-89
2021/12/16 11:39:22;;;;;;;32.80;16.90;;;;;;;14.20;56.29;103371.72;5028036;28;20052;-88
2021/12/16 11:41:52;;;;;;;34.70;17.25;;;;;;;14.20;56.30;103368.09;5012954;28;20090;-89
2021/12/16 11:44:29;;;;;;;36.35;16.95;;;;;;;14.19;56.49;103367.22;5007338;28;20496;-87
2021/12/16 11:47:04;;;;;;;35.13;16.40;;;;;;;14.21;56.42;103361.69;5017225;28;20049;-88
2021/12/16 11:49:41;;;;;;;37.25;19.08;;;;;;;14.22;56.37;103363.47;5027320;28;20512;-87
2021/12/16 11:52:11;;;;;;;31.52;16.33;;;;;;;14.22;56.21;103368.94;5028281;28;20127;-88
2021/12/16 11:54:53;;;;;;;34.83;17.13;;;;;;;14.25;56.49;103363.31;5029519;28;20081;-89
2021/12/16 11:57:32;;;;;;;37.90;18.35;;;;;;;14.22;56.59;103369.84;5036491;28;20499;-89
2021/12/16 12:00:15;;;;;;;38.15;17.83;;;;;;;14.22;56.62;103367.09;5028829;28;20049;-87
2021/12/16 12:02:51;;;;;;;35.03;17.27;;;;;;;14.20;56.32;103368.09;5029023;28;20046;-88
2021/12/16 12:05:33;;;;;;;37.25;17.85;;;;;;;14.24;56.62;103376.13;5005673;28;20045;-87
2021/12/16 12:08:22;;;;;;;37.60;18.73;;;;;;;14.22;56.79;103360.75;5018491;28;20127;-89
2021/12/16 12:10:53;;;;;;;39.60;19.25;;;;;;;14.22;56.52;103356.16;5019689;28;20563;-87
2021/12/16 12:13:24;;;;;;;33.47;16.10;;;;;;;14.21;56.81;103348.03;5030908;28;20125;-87
2021/12/16 12:16:05;;;;;;;32.08;15.68;;;;;;;14.24;56.64;103350.66;5019803;28;20068;-88
2021/12/16 12:18:59;;;;;;;37.22;16.27;;;;;;;14.23;56.51;103354.31;5036416;28;20111;-87
2021/12/16 12:21:45;;;;;;;42.72;19.50;;;;;;;14.23;56.72;103349.75;5041383;28;20067;-86
2021/12/16 12:24:15;;;;;;;37.60;18.77;;;;;;;14.19;56.83;103350.81;5028456;28;20065;-86
2021/12/16 12:26:54;;;;;;;37.78;18.77;;;;;;;14.25;56.43;103357.84;5011167;28;20057;-86
2021/12/16 12:29:27;;;;;;;36.15;16.73;;;;;;;14.21;56.54;103354.38;5028140;28;20049;-87
2021/12/16 12:32:06;;;;;;;40.95;19.00;;;;;;;14.25;56.91;103350.56;5032119;28;20137;-86
2021/12/16 12:34:37;;;;;;;39.92;19.23;;;;;;;14.23;56.91;103354.31;5029020;28;20107;-87
2021/12/16 12:37:08;;;;;;;31.58;16.55;;;;;;;14.24;56.44;103356.09;5005313;28;20049;-87
2021/12/16 12:39:45;;;;;;;41.90;19.23;;;;;;;14.24;56.50;103361.56;5053704;28;20072;-86
2021/12/16 12:42:13;;;;;;;38.75;18.33;;;;;;;14.24;56.58;103359.72;5021893;28;20057;-86
2021/12/16 12:44:43;;;;;;;33.72;16.83;;;;;;;14.26;56.85;103356.91;5031708;28;20409;-87
2021/12/16 12:47:15;;;;;;;38.60;18.73;;;;;;;14.26;56.79;103354.19;5024461;28;20527;-88
2021/12/16 12:49:45;;;;;;;31.20;16.40;;;;;;;14.25;56.85;103358.75;5048825;28;20107;-89
2021/12/16 12:52:23;;;;;;;34.58;17.60;;;;;;;14.28;56.66;103357.75;5042778;28;20072;-88
2021/12/16 12:55:12;;;;;;;36.90;18.40;;;;;;;14.26;56.74;103356.91;5051111;28;20115;-89
2021/12/16 12:57:42;;;;;;;37.72;18.90;;;;;;;14.25;56.37;103355.13;5029152;28;20046;-89
2021/12/16 13:00:29;;;;;;;37.03;19.20;;;;;;;14.26;56.67;103368.72;5016871;28;20076;-89
2021/12/16 13:03:08;;;;;;;33.47;16.80;;;;;;;14.28;56.79;103371.41;5045491;28;20451;-89
2021/12/16 13:05:41;;;;;;;34.35;15.98;;;;;;;14.23;56.64;103365.25;5033012;28;20400;-88
2021/12/16 13:08:11;;;;;;;40.53;19.27;;;;;;;14.27;56.69;103370.50;5032475;28;20042;-89
2021/12/16 13:10:44;;;;;;;38.53;19.55;;;;;;;14.29;56.94;103359.53;5018112;28;20084;-90
2021/12/16 13:13:35;;;;;;;34.78;18.60;;;;;;;14.28;56.54;103361.38;5012997;28;20041;-89
2021/12/16 13:16:51;;;;;;;33.83;16.35;;;;;;;14.28;56.81;103365.94;5046240;28;20045;-90
2021/12/16 13:28:05;;;;;;;36.72;16.73;;;;;;;14.28;56.86;103361.38;5024026;28;20054;-87
2021/12/16 13:30:50;;;;;;;35.85;17.33;;;;;;;14.28;56.68;103366.84;5003640;28;20530;-89
2021/12/16 13:33:27;;;;;;;33.15;16.85;;;;;;;14.27;56.66;103367.78;5048539;28;20133;-86
2021/12/16 13:36:13;;;;;;;36.60;16.88;;;;;;;14.30;56.77;103373.13;5038040;28;20049;-86
2021/12/16 13:38:49;;;;;;;32.05;16.42;;;;;;;14.32;56.85;103370.34;5022319;28;20799;-89
2021/12/16 13:41:22;;;;;;;27.58;14.43;;;;;;;14.33;56.96;103367.50;5031424;28;20231;-89
2021/12/16 13:44:06;;;;;;;;;;;;;;;14.08;57.25;103377.72;5032855;28;20045;-89
2021/12/16 13:47:07;;;;;;;31.25;16.15;;;;;;;14.29;56.72;103379.53;5013360;28;19924;-90
2021/12/16 14:01:39;;;;;;;29.83;15.00;;;;;;;14.31;56.39;103380.38;5025782;28;20092;-87
2021/12/16 14:10:18;;;;;;;30.38;14.57;;;;;;;14.31;56.71;103385.84;5037099;28;20045;-89
2021/12/16 14:17:10;;;;;;;28.40;15.18;;;;;;;14.31;56.88;103396.78;5028708;28;20056;-89
2021/12/16 14:25:32;;;;;;;30.05;14.57;;;;;;;14.30;56.60;103377.69;5030706;28;20057;-90
2021/12/16 14:50:57;;;;;;;28.80;14.25;;;;;;;14.41;56.63;103389.97;4977510;28;20074;-86
2021/12/16 14:53:54;;;;;;;27.05;13.90;;;;;;;14.35;56.94;103395.69;4988104;28;20133;-88
2021/12/16 14:56:26;;;;;;;32.53;15.13;;;;;;;14.41;56.76;103400.03;4951080;28;20054;-87
2021/12/16 14:58:57;;;;;;;31.93;16.50;;;;;;;14.41;56.84;103400.03;4965735;28;20061;-88
2021/12/16 15:01:35;;;;;;;37.10;17.38;;;;;;;14.45;56.46;103396.22;4979553;28;20050;-88